Date,TemperatureHighF,TemperatureAvgF,TemperatureLowF,DewpointHighF,DewpointAvgF,DewpointLowF,HumidityHigh,HumidityAvg,HumidityLow,PressureMaxIn,PressureMinIn,WindSpeedMaxMPH,WindSpeedAvgMPH,GustSpeedMaxMPH,PrecipitationSumIn
2013-1-1,46,42,38,43,39,33,89,88,83,30.12,29.99,13,0,16,0.24
2013-1-2,41,38,36,38,34,31,90,85,80,30.22,30.06,4,0,7,0.00
2013-1-3,46,36,26,32,28,22,86,74,50,30.39,30.18,5,0,44,0.00
2013-1-4,46,32,24,30,24,20,88,73,49,30.46,30.36,4,0,6,0.00
2013-1-5,47,35,24,35,27,21,88,74,51,30.43,30.26,4,0,7,0.04
2013-1-6,49,41,33,38,35,26,89,78,60,30.33,30.15,8,1,10,0.00
2013-1-7,50,35,25,33,27,21,87,74,51,30.43,30.31,5,0,12,0.00
2013-1-8,52,37,26,39,31,23,89,79,56,30.42,30.29,5,0,6,0.00
2013-1-9,50,46,39,46,42,35,89,87,83,30.47,30.34,2,0,3,0.18
2013-1-10,64,52,46,56,48,42,89,86,74,30.46,30.14,10,0,11,0.00
2013-1-11,68,64,60,62,59,54,88,84,73,30.16,30.07,15,2,17,0.06
2013-1-12,70,65,61,65,60,56,88,86,78,30.14,30.01,10,1,11,0.11
2013-1-13,68,63,51,61,58,48,89,83,74,30.10,29.96,16,2,18,1.06
2013-1-14,51,41,36,48,38,32,89,89,88,30.33,30.10,19,0,22,1.14
2013-1-15,42,40,38,39,37,35,90,89,89,30.22,30.00,18,0,20,2.40
2013-1-16,46,42,40,43,39,37,90,89,89,30.10,29.94,4,0,5,0.23
2013-1-17,41,38,33,38,34,28,90,86,79,30.37,29.89,10,1,11,0.28
2013-1-18,47,35,26,35,28,24,90,79,50,30.55,30.37,8,0,9,0.00
2013-1-19,53,36,27,37,29,24,89,78,45,30.44,30.20,10,1,13,0.00
2013-1-20,59,41,30,39,31,26,88,71,39,30.24,30.13,4,0,10,0.00
2013-1-21,49,36,26,30,22,14,88,61,33,30.26,30.12,10,1,11,0.00
2013-1-22,35,29,21,14,8,5,57,43,29,30.40,30.25,6,1,10,0.00
2013-1-23,48,35,26,27,17,7,78,50,38,30.39,30.15,24,1,16,0.00
2013-1-24,46,35,24,36,18,8,77,52,32,30.42,30.16,8,1,9,0.00
2013-1-25,33,30,24,30,24,10,89,76,45,30.38,30.12,15,1,17,0.02
2013-1-26,48,36,29,36,30,26,89,81,59,30.38,30.20,5,0,5,0.00
2013-1-27,47,37,26,38,31,22,89,80,63,30.45,30.33,5,0,6,0.00
2013-1-28,56,48,39,47,41,33,87,75,68,30.37,30.24,14,1,16,0.00
2013-1-29,53,49,42,50,46,39,89,88,83,30.25,29.88,3,0,3,0.02
2013-1-30,68,54,39,62,50,33,89,86,73,29.88,29.57,21,3,24,2.31
2013-1-31,45,39,34,33,26,24,76,62,47,30.11,29.80,14,3,63,0.00
2013-2-1,42,29,21,33,17,11,83,60,44,30.44,30.05,15,1,17,0.00
2013-2-2,36,28,21,30,22,14,85,78,67,30.39,30.09,13,1,15,0.03
2013-2-3,50,36,27,37,29,22,88,76,52,30.18,30.02,15,1,17,0.04
2013-2-4,47,35,24,32,27,21,88,73,55,30.17,29.99,6,0,8,0.00
2013-2-5,60,47,38,44,37,31,86,71,48,30.06,29.95,7,1,8,0.00
2013-2-6,63,45,31,41,34,28,89,69,34,30.22,30.05,13,1,38,0.00
2013-2-7,53,46,39,41,37,33,83,73,55,30.16,29.96,3,0,3,0.00
2013-2-8,55,45,38,46,38,30,89,77,57,30.29,29.92,16,1,18,0.09
2013-2-9,56,42,28,33,28,23,84,61,32,30.37,30.24,4,1,7,0.00
2013-2-10,62,46,37,45,36,28,89,72,36,30.25,30.01,12,1,23,0.42
2013-2-11,57,50,41,52,43,34,89,78,48,30.15,30.00,11,1,15,0.00
2013-2-12,55,44,35,38,34,31,87,70,44,30.19,29.88,12,0,13,0.02
2013-2-13,47,42,33,43,37,30,89,84,76,30.02,29.72,9,1,10,0.17
2013-2-14,56,43,34,39,35,30,88,73,50,30.10,30.01,10,1,12,0.00
2013-2-15,54,40,30,42,33,26,89,75,58,30.13,30.04,10,1,12,0.00
2013-2-16,41,33,28,29,20,12,82,60,42,30.18,30.06,8,2,11,0.00
2013-2-17,45,32,20,19,15,11,75,53,33,30.30,30.17,8,1,10,0.00
2013-2-18,59,42,23,33,25,16,77,54,36,30.33,30.00,18,2,21,0.00
2013-2-19,54,44,37,43,30,18,88,61,31,30.22,29.96,19,2,22,0.26
2013-2-20,41,33,24,21,18,15,76,56,36,30.29,30.20,4,0,5,0.00
2013-2-21,53,38,25,36,24,16,87,60,31,30.25,29.99,8,1,9,0.59
2013-2-22,50,45,39,45,41,35,89,86,81,30.09,30.01,7,0,8,0.10
2013-2-23,62,49,40,49,43,36,89,82,59,30.07,29.86,7,1,8,0.02
2013-2-24,59,42,29,36,29,25,89,63,32,30.11,29.95,6,1,7,0.00
2013-2-25,59,45,31,43,31,24,79,61,39,30.07,29.78,10,1,12,0.00
2013-2-26,54,46,41,45,41,35,89,82,66,29.79,29.52,20,2,24,0.62
2013-2-27,50,42,40,37,34,32,81,72,60,29.91,29.74,11,2,22,0.00
2013-2-28,41,38,36,32,28,26,78,67,60,30.04,29.86,10,1,11,0.00
2013-3-1,42,38,35,33,30,28,83,74,65,30.03,29.97,6,0,7,0.00
2013-3-2,39,35,32,31,28,24,85,73,63,30.09,29.97,7,1,8,0.00
2013-3-3,40,32,24,24,20,17,75,61,45,30.12,30.08,9,1,14,0.00
2013-3-4,52,36,21,31,24,17,86,65,38,30.21,30.00,5,0,7,0.00
2013-3-5,50,40,36,47,35,28,89,83,69,30.03,29.65,15,1,17,1.30
2013-3-6,36,34,31,29,27,25,86,76,73,30.28,29.92,10,2,12,0.00
2013-3-7,44,36,33,31,28,26,78,72,61,30.36,30.25,11,1,13,0.00
2013-3-8,56,40,27,31,27,23,84,63,34,30.41,30.28,9,1,11,0.00
2013-3-9,60,44,30,39,32,26,84,65,41,30.33,30.17,7,0,8,0.00
2013-3-10,72,55,38,42,36,33,84,54,27,30.17,29.99,15,2,22,0.00
2013-3-11,62,56,42,52,47,37,88,74,49,30.01,29.74,16,2,18,0.77
2013-3-12,56,44,36,38,32,29,84,65,43,30.14,29.94,7,1,8,0.00
2013-3-13,48,37,29,32,25,18,88,65,41,30.36,30.11,33,2,38,0.00
2013-3-14,50,38,26,31,21,16,69,52,32,30.42,30.25,9,1,10,0.00
2013-3-15,73,51,30,46,37,26,88,62,37,30.28,29.93,10,1,11,0.00
2013-3-16,77,65,55,51,46,42,62,51,39,29.93,29.81,14,3,16,0.00
2013-3-17,77,63,50,54,48,43,79,58,41,29.97,29.85,12,2,17,0.00
2013-3-18,62,56,51,56,51,46,89,82,64,29.92,29.76,14,2,20,0.93
2013-3-19,62,49,34,49,33,18,89,59,27,30.16,29.89,8,1,12,0.00
2013-3-20,60,44,31,31,23,18,71,46,27,30.17,29.93,12,2,14,0.00
2013-3-21,44,34,24,24,16,11,64,48,34,30.05,29.96,12,2,16,0.00
2013-3-22,45,36,26,29,21,16,69,55,42,30.10,30.01,5,0,18,0.00
2013-3-23,56,46,38,44,38,29,86,74,61,30.04,29.78,4,0,6,0.02
2013-3-24,60,48,41,54,43,32,89,83,66,29.82,29.42,14,2,16,0.77
2013-3-25,41,36,33,32,27,26,78,70,63,30.07,29.68,39,4,45,0.00
2013-3-26,42,36,33,30,27,25,81,69,57,30.31,30.07,8,1,9,0.00
2013-3-27,52,41,27,29,26,23,85,59,35,30.37,30.28,8,1,9,0.00
2013-3-28,61,42,27,33,26,22,86,58,29,30.38,30.26,8,1,10,0.00
2013-3-29,46,40,33,42,34,24,88,78,59,30.38,30.25,6,0,7,0.27
2013-3-30,59,49,42,48,44,39,89,83,65,30.25,30.02,18,0,21,0.26
2013-3-31,63,55,48,56,51,45,89,86,73,30.02,29.88,8,1,11,0.43
2013-4-1,66,52,36,54,41,34,89,71,43,30.11,29.92,10,1,12,0.00
2013-4-2,57,47,33,37,28,24,73,50,30,30.26,30.11,7,1,8,0.00
2013-4-3,59,49,35,28,25,21,61,40,27,30.28,30.17,10,1,16,0.00
2013-4-4,50,43,39,41,36,24,89,78,36,30.19,30.01,3,0,4,0.80
2013-4-5,68,52,38,46,39,35,89,66,33,30.11,30.00,8,1,10,0.00
2013-4-6,73,56,36,46,39,32,87,58,30,30.20,30.06,13,1,15,0.00
2013-4-7,75,61,47,50,44,37,72,55,37,30.18,30.05,24,2,28,0.00
2013-4-8,78,63,48,57,50,44,85,64,43,30.12,30.01,14,2,22,0.00
2013-4-9,83,67,50,60,53,46,88,65,44,30.20,30.04,17,2,19,0.00
2013-4-10,86,70,52,61,56,48,88,63,39,30.14,29.89,11,1,16,0.00
2013-4-11,82,71,60,63,58,54,88,64,46,29.92,29.56,16,2,18,1.21
2013-4-12,66,58,46,59,46,40,88,68,40,29.98,29.55,9,1,13,0.28
2013-4-13,72,56,40,46,41,37,88,62,30,30.11,29.97,8,1,9,0.00
2013-4-14,66,54,42,52,45,38,87,74,52,30.07,29.96,9,0,13,0.00
2013-4-15,77,64,54,59,55,50,88,74,52,30.11,29.95,6,1,8,0.00
2013-4-16,84,67,54,66,59,51,88,75,55,30.25,30.11,7,1,9,0.00
2013-4-17,84,65,60,67,60,56,88,82,56,30.22,30.07,11,0,14,0.25
2013-4-18,84,69,57,65,58,54,89,70,42,30.08,29.81,12,1,17,0.00
2013-4-19,73,58,46,62,49,34,88,73,59,30.14,29.70,15,2,20,0.95
2013-4-20,66,50,33,39,33,30,88,58,29,30.30,30.14,10,1,12,0.00
2013-4-21,70,53,38,43,37,33,82,58,35,30.40,30.25,6,0,8,0.00
2013-4-22,72,57,40,48,42,36,87,63,35,30.35,30.15,7,1,8,0.00
2013-4-23,74,60,44,52,46,40,88,63,41,30.24,30.03,9,0,10,0.00
2013-4-24,70,58,47,60,51,40,87,77,65,30.26,30.01,12,1,14,0.32
2013-4-25,68,52,37,43,38,34,88,63,32,30.37,30.25,6,0,8,0.00
2013-4-26,72,54,38,47,41,34,88,64,35,30.41,30.29,6,0,13,0.00
2013-4-27,55,52,50,50,48,46,89,87,72,30.38,30.12,3,0,4,1.63
2013-4-28,59,55,50,56,52,47,89,89,88,30.13,29.94,18,1,21,1.79
2013-4-29,74,62,54,60,55,51,89,78,54,30.06,29.95,6,0,7,0.00
2013-4-30,79,63,49,62,55,45,89,75,48,30.10,29.99,1,0,1,0.00
2013-5-1,80,67,55,64,57,51,88,73,50,30.21,30.09,0,0,0,0.00
2013-5-2,79,65,54,62,57,50,88,75,52,30.22,30.10,0,0,0,0.00
2013-5-3,74,62,52,60,54,49,88,77,54,30.14,29.98,0,0,0,0.00
2013-5-4,59,55,52,54,51,49,89,87,82,29.98,29.90,2,0,3,1.35
2013-5-5,56,53,50,53,50,46,89,89,88,29.92,29.79,5,0,5,2.36
2013-5-6,57,51,44,52,47,41,89,87,79,29.95,29.79,4,0,4,0.30
2013-5-7,73,56,41,56,49,38,89,78,53,30.00,29.91,4,0,5,0.02
2013-5-8,77,64,54,62,56,50,89,77,55,30.08,29.96,6,0,7,0.00
2013-5-9,83,66,52,66,57,49,89,75,49,30.13,30.02,0,0,0,0.00
2013-5-10,73,65,56,63,58,52,88,78,65,30.09,29.95,1,0,1,0.00
2013-5-11,79,66,53,65,58,48,88,76,57,30.03,29.90,0,0,0,0.02
2013-5-12,68,58,44,52,41,34,87,57,31,30.18,30.02,0,0,0,0.00
2013-5-13,71,54,38,45,38,35,88,60,31,30.27,30.15,0,0,0,0.00
2013-5-14,80,62,41,57,48,37,88,63,42,30.26,30.04,0,0,0,0.00
2013-5-15,89,71,54,64,57,51,88,62,38,30.18,30.00,0,0,0,0.00
2013-5-16,86,69,56,66,58,50,86,70,45,30.10,29.98,0,0,0,0.00
2013-5-17,80,68,60,68,62,57,88,82,65,30.12,30.02,4,0,5,0.00
2013-5-18,75,67,63,69,63,60,88,87,79,30.09,30.01,2,0,2,1.40
2013-5-19,69,65,59,66,62,55,89,88,88,30.10,30.02,8,0,9,1.98
2013-5-20,82,68,56,72,62,53,89,83,68,30.15,30.01,8,0,9,0.00
2013-5-21,88,70,62,74,64,58,88,82,60,30.07,29.94,0,0,0,1.07
2013-5-22,86,70,61,74,64,57,88,82,60,29.98,29.86,0,0,0,0.00
2013-5-23,83,70,61,69,61,55,88,73,54,30.05,29.92,0,0,0,0.00
2013-5-24,73,63,52,56,50,45,84,64,42,30.28,30.05,0,0,0,0.00
2013-5-25,76,61,45,55,48,42,89,66,35,30.36,30.18,0,0,0,0.00
2013-5-26,77,63,52,60,54,48,88,73,45,30.31,30.19,0,0,0,0.00
2013-5-27,86,69,54,65,58,50,88,71,44,30.25,30.10,0,0,0,1.31
2013-5-28,87,73,60,67,61,56,88,68,46,30.20,30.09,0,0,0,0.00
2013-5-29,87,73,59,69,62,55,88,71,49,30.24,30.10,0,0,0,0.00
2013-5-30,87,73,61,71,64,57,88,76,52,30.25,30.10,0,0,0,0.00
2013-5-31,87,74,62,70,64,59,88,73,52,30.20,30.06,6,0,7,0.00
2013-6-1,87,74,65,73,67,61,87,79,59,30.10,29.97,7,0,8,0.02
2013-6-2,80,72,67,73,67,63,88,86,75,30.00,29.90,7,0,8,1.69
2013-6-3,84,71,62,70,63,58,88,77,56,30.03,29.93,16,0,18,0.00
2013-6-4,84,70,58,69,61,54,88,76,54,30.08,29.99,3,0,4,0.00
2013-6-5,81,68,62,72,64,58,88,84,70,30.06,29.94,6,0,7,0.25
2013-6-6,83,71,62,72,65,58,88,83,67,29.96,29.78,0,0,0,0.56
2013-6-7,86,72,66,73,66,62,88,81,57,29.89,29.74,0,0,0,0.02
2013-6-8,82,72,64,70,65,60,88,80,62,30.09,29.88,7,0,8,0.00
2013-6-9,86,71,65,75,66,61,88,84,67,30.12,29.99,22,0,22,0.21
2013-6-10,84,74,68,71,67,64,88,79,60,29.99,29.91,16,1,18,0.37
2013-6-11,89,75,64,74,67,60,88,76,52,30.07,29.98,11,0,13,0.00
2013-6-12,92,79,68,78,71,64,88,77,60,30.09,29.96,0,0,0,0.00
2013-6-13,89,78,71,78,71,66,87,80,65,29.97,29.79,5,0,45,0.21
2013-6-14,85,72,59,66,61,56,88,70,49,30.07,29.93,6,0,10,0.00
2013-6-15,86,72,59,69,62,55,88,74,52,30.15,30.06,4,0,5,0.00
2013-6-16,88,75,64,73,66,60,88,77,53,30.15,30.01,4,0,16,0.07
2013-6-17,83,73,68,75,68,64,88,83,69,30.07,29.94,4,0,5,0.09
2013-6-18,80,70,64,74,66,61,88,86,77,29.99,29.88,13,0,16,0.93
2013-6-19,87,72,62,72,65,58,88,78,55,30.09,29.97,4,0,5,0.00
2013-6-20,89,74,64,74,66,60,88,78,58,30.23,30.09,4,0,5,0.00
2013-6-21,85,73,64,71,66,60,88,80,63,30.29,30.17,11,0,12,0.00
2013-6-22,88,74,64,73,66,60,88,77,53,30.27,30.10,4,0,16,1.31
2013-6-23,88,74,64,73,66,60,88,78,55,30.23,30.12,8,0,13,0.00
2013-6-24,88,75,65,75,68,61,88,80,61,30.24,30.10,10,0,11,0.07
2013-6-25,84,74,69,75,69,65,88,84,71,30.18,30.04,5,0,6,0.00
2013-6-26,90,77,68,78,71,64,88,81,66,30.09,29.91,5,0,6,0.00
2013-6-27,89,78,72,77,72,68,88,81,64,29.96,29.83,5,0,6,0.05
2013-6-28,88,76,68,78,70,64,88,82,64,29.87,29.70,7,0,8,0.00
2013-6-29,90,76,66,72,65,62,88,71,42,29.75,29.68,5,0,5,0.00
2013-6-30,88,74,64,71,65,60,88,74,49,29.86,29.72,4,0,5,0.24
2013-7-1,82,71,63,72,66,59,88,84,69,29.95,29.81,6,0,7,0.49
2013-7-2,83,72,66,73,66,62,88,84,67,30.10,29.93,6,0,7,0.05
2013-7-3,72,69,66,68,65,63,88,88,87,30.19,30.08,6,0,9,1.16
2013-7-4,74,69,66,70,65,62,88,88,87,30.19,30.09,12,0,14,0.83
2013-7-5,77,71,67,72,67,64,88,87,82,30.20,30.12,9,0,10,0.05
2013-7-6,73,69,67,69,65,63,89,88,87,30.19,30.13,8,0,9,1.50
2013-7-7,75,70,67,72,66,63,89,88,85,30.19,30.12,9,0,10,1.65
2013-7-8,88,76,69,78,70,65,88,84,69,30.24,30.12,11,0,13,0.00
2013-7-9,88,76,71,79,71,67,88,85,73,30.20,30.08,4,0,10,0.00
2013-7-10,90,76,70,80,71,66,88,85,69,30.13,29.96,12,0,14,0.14
2013-7-11,86,74,68,76,69,64,88,85,72,30.02,29.91,3,0,20,0.00
2013-7-12,85,74,66,73,67,62,88,79,61,30.02,29.94,3,0,5,0.00
2013-7-13,84,71,62,73,66,59,89,85,64,30.10,29.98,3,0,4,0.33
2013-7-14,87,74,68,76,69,64,88,85,67,30.23,30.09,3,0,6,0.40
2013-7-15,88,76,66,77,70,62,88,81,66,30.32,30.23,3,0,17,0.00
2013-7-16,91,79,68,77,71,64,88,78,59,30.36,30.25,4,0,8,1.45
2013-7-17,95,81,70,79,72,66,88,77,53,30.33,30.18,4,0,22,0.00
2013-7-18,90,79,70,78,72,66,88,79,64,30.26,30.07,8,0,9,0.00
2013-7-19,92,80,69,78,72,66,88,78,53,30.15,29.99,4,0,13,0.00
2013-7-20,92,80,70,78,72,66,88,77,56,30.07,29.93,5,0,6,0.51
2013-7-21,86,74,71,78,69,67,88,87,76,30.05,29.96,6,0,7,0.46
2013-7-22,84,74,70,76,70,66,88,86,74,30.02,29.87,9,0,10,0.16
2013-7-23,86,76,70,76,71,66,88,84,70,29.97,29.85,4,0,27,0.00
2013-7-24,86,75,68,76,70,64,88,84,66,29.93,29.85,3,0,4,0.03
2013-7-25,86,73,62,72,65,58,89,77,54,30.08,29.93,3,0,4,0.00
2013-7-26,86,73,62,74,66,58,89,80,65,30.11,30.00,3,0,3,0.00
2013-7-27,80,73,67,72,68,63,88,85,70,30.03,29.90,3,0,5,0.00
2013-7-28,85,73,63,69,65,59,88,77,52,30.11,29.94,4,0,5,0.00
2013-7-29,84,69,58,65,59,54,89,73,43,30.22,30.10,0,0,0,0.00
2013-7-30,84,71,60,71,64,56,88,80,60,30.26,30.15,0,0,0,1.45
2013-7-31,76,70,64,71,66,60,88,87,84,30.18,30.00,5,0,6,0.05
2013-8-1,86,76,67,75,69,64,88,80,62,30.03,29.97,3,0,12,0.21
2013-8-2,87,74,63,71,66,60,88,78,51,30.08,30.01,5,0,5,0.00
2013-8-3,85,75,67,75,69,63,88,82,69,30.08,30.01,3,0,3,0.00
2013-8-4,88,76,67,74,68,61,88,75,53,30.11,30.04,3,0,4,0.00
2013-8-5,86,73,60,70,64,56,88,76,45,30.12,30.00,3,0,10,0.00
2013-8-6,87,76,70,75,70,66,88,83,65,30.04,29.97,13,0,15,0.00
2013-8-7,84,75,71,76,70,67,88,86,76,30.07,29.97,3,0,20,0.03
2013-8-8,83,74,69,76,70,66,88,86,79,30.08,30.00,3,0,9,0.15
2013-8-9,91,75,69,80,70,65,88,85,61,30.11,30.03,4,0,5,0.24
2013-8-10,90,75,70,79,70,66,88,86,68,30.15,30.09,7,0,8,0.24
2013-8-11,90,75,70,78,70,66,88,85,66,30.19,30.08,21,0,24,0.98
2013-8-12,83,73,69,77,69,65,88,88,81,30.15,30.00,0,0,1,0.03
2013-8-13,86,76,69,76,70,66,89,83,67,30.02,29.91,3,0,12,0.00
2013-8-14,82,71,61,68,64,56,89,78,58,30.09,29.97,2,0,7,0.00
2013-8-15,82,70,59,69,62,55,88,78,60,30.12,30.04,3,0,4,0.00
2013-8-16,80,70,62,70,64,58,89,83,69,30.13,30.06,2,0,3,0.00
2013-8-17,75,68,65,69,64,61,89,86,77,30.17,30.10,3,0,3,1.10
2013-8-18,78,69,66,71,65,62,88,87,76,30.22,30.13,3,0,4,0.44
2013-8-19,76,71,67,71,67,63,89,87,83,30.18,30.09,16,0,18,0.00
2013-8-20,86,75,67,76,69,64,89,83,66,30.20,30.11,5,0,7,0.00
2013-8-21,80,73,69,74,69,65,88,87,80,30.24,30.15,6,0,8,0.16
2013-8-22,88,76,68,76,70,64,89,83,63,30.21,30.07,10,0,24,0.00
2013-8-23,89,74,67,77,68,63,89,83,60,30.13,30.03,5,0,14,0.11
2013-8-24,85,73,66,76,67,62,89,83,65,30.27,30.11,17,0,20,0.00
2013-8-25,85,72,63,69,64,59,89,79,57,30.39,30.26,6,0,7,0.00
2013-8-26,86,72,62,70,64,58,89,79,55,30.34,30.13,10,0,11,0.00
2013-8-27,88,74,64,74,67,60,89,80,60,30.15,30.03,9,0,11,0.00
2013-8-28,90,76,67,76,70,63,88,81,61,30.07,29.98,22,0,25,0.00
2013-8-29,93,78,69,80,71,66,88,81,56,30.01,29.92,13,0,15,0.00
2013-8-30,92,77,69,79,71,66,88,83,62,30.01,29.90,5,0,6,0.00
2013-8-31,92,78,70,79,72,66,88,82,59,29.96,29.84,0,0,0,0.03
2013-9-1,90,76,68,77,70,64,88,83,64,29.91,29.83,0,0,0,0.03
2013-9-2,88,76,68,76,70,65,88,82,64,29.95,29.83,0,0,0,0.00
2013-9-3,90,77,66,75,69,62,88,78,57,30.01,29.85,0,0,0,0.00
2013-9-4,88,72,61,70,63,58,88,76,45,30.11,30.01,0,0,0,0.00
2013-9-5,87,71,60,70,62,56,89,76,48,30.16,30.09,0,0,0,0.00
2013-9-6,90,73,62,70,64,58,89,75,43,30.17,30.05,0,0,0,0.00
2013-9-7,89,74,62,73,66,59,89,79,56,30.12,29.99,0,0,0,0.00
2013-9-8,91,75,65,75,68,61,89,80,55,30.03,29.94,0,0,0,0.00
2013-9-9,91,77,68,75,70,64,88,78,56,30.10,30.00,0,0,0,0.00
2013-9-10,91,77,67,76,69,63,88,78,53,30.21,30.09,0,0,0,0.00
2013-9-11,92,78,70,76,70,67,88,78,53,30.22,30.08,3,0,11,0.00
2013-9-12,92,78,69,76,70,65,88,77,53,30.09,29.89,4,0,5,0.03
2013-9-13,83,71,59,69,60,51,89,70,43,29.98,29.89,4,0,11,0.00
2013-9-14,80,63,51,58,53,47,89,71,45,30.07,29.97,6,0,7,0.00
2013-9-15,84,67,54,67,59,51,89,78,53,30.16,30.07,4,0,5,0.00
2013-9-16,87,70,59,69,61,55,89,75,46,30.16,30.08,3,0,9,0.00
2013-9-17,81,70,62,68,62,58,88,77,62,30.21,30.11,9,0,10,0.00
2013-9-18,80,70,62,67,63,58,88,78,58,30.21,30.10,16,0,18,0.00
2013-9-19,86,71,61,68,63,57,89,78,56,30.18,30.03,3,0,8,0.00
2013-9-20,89,73,62,69,64,59,89,76,47,30.07,29.87,7,0,14,0.00
2013-9-21,69,66,56,65,62,53,89,88,86,29.88,29.75,3,0,4,2.05
2013-9-22,79,63,51,62,55,48,89,77,49,29.92,29.82,6,0,7,0.00
2013-9-23,81,64,52,65,57,49,89,79,56,30.01,29.91,10,0,11,0.00
2013-9-24,75,65,56,66,60,53,89,84,68,30.03,29.88,8,0,9,0.00
2013-9-25,68,65,64,64,62,60,89,89,88,29.88,29.82,1,0,2,0.41
2013-9-26,83,69,60,70,63,57,89,81,56,30.02,29.87,0,0,0,0.00
2013-9-27,83,66,56,68,59,53,89,80,54,30.14,30.01,0,0,0,0.00
2013-9-28,81,66,55,65,59,52,89,80,56,30.21,30.08,0,0,0,0.00
2013-9-29,76,65,57,62,58,54,89,79,55,30.13,29.99,0,0,0,0.00
2013-9-30,79,64,55,65,58,52,89,81,56,30.08,29.98,0,0,0,0.00
2013-10-1,83,66,56,68,60,53,89,81,59,30.15,30.04,0,0,0,0.00
2013-10-2,84,69,61,72,64,58,89,83,61,30.17,30.05,0,0,0,0.00
2013-10-3,86,72,63,71,64,60,89,79,52,30.12,30.03,0,0,0,0.00
2013-10-4,84,69,60,70,63,56,89,83,62,30.16,30.06,0,0,0,0.00
2013-10-5,86,71,62,72,65,58,89,81,59,30.13,29.98,0,0,0,0.00
2013-10-6,86,71,59,71,64,55,89,81,56,30.00,29.80,11,1,18,0.08
2013-10-7,72,60,52,56,52,48,89,76,51,30.06,29.89,4,0,7,0.00
2013-10-8,75,59,48,56,50,45,89,74,47,30.12,30.05,6,0,7,0.00
2013-10-9,78,62,51,62,55,48,89,79,56,30.19,30.08,8,0,9,0.00
2013-10-10,80,63,53,63,55,50,89,76,49,30.15,30.03,4,0,6,0.00
2013-10-11,81,63,51,62,55,48,89,77,48,30.08,29.98,4,0,5,0.00
2013-10-12,84,64,52,65,56,49,89,78,48,30.11,30.00,5,0,6,0.00
2013-10-13,84,66,53,65,57,50,89,76,46,30.21,30.10,2,0,6,0.00
2013-10-14,81,66,56,66,60,53,89,79,57,30.21,30.08,4,0,5,0.00
2013-10-15,74,66,60,63,60,57,89,82,67,30.13,30.02,4,0,4,0.00
2013-10-16,70,64,59,62,59,56,89,84,73,30.05,29.94,3,0,3,0.03
2013-10-17,68,62,49,65,58,46,90,87,78,30.00,29.87,4,0,6,0.08
2013-10-18,67,54,46,54,48,44,90,80,55,30.07,29.95,5,0,5,0.00
2013-10-19,68,54,44,56,49,40,90,83,62,30.03,29.89,3,0,8,0.00
2013-10-20,66,49,37,48,41,34,90,78,50,30.09,30.00,3,0,5,0.00
2013-10-21,72,53,42,54,46,39,90,78,46,30.11,29.97,4,0,5,0.00
2013-10-22,68,57,49,56,50,45,89,80,62,30.00,29.84,5,0,6,0.00
2013-10-23,53,47,36,47,40,33,89,76,57,30.09,29.80,6,0,11,0.00
2013-10-24,60,46,35,44,38,32,89,74,55,30.27,30.07,6,0,6,0.00
2013-10-25,54,40,30,34,29,25,85,67,41,30.43,30.26,14,0,16,0.00
2013-10-26,61,44,29,39,33,26,90,68,41,30.32,30.08,11,1,13,0.00
2013-10-27,59,50,45,45,40,37,79,70,58,30.12,30.07,2,0,2,0.00